Time;durP1;ratioP1;P1;durP2;ratioP2;P2;SDS_P1;SDS_P2;PMS_P1;PMS_P2;Temp;Humidity;BMP_temperature;BMP_pressure;BME280_temperature;BME280_humidity;BME280_pressure;Samples;Min_cycle;Max_cycle;Signal;HPM_P1;HPM_P2
2023/03/02 00:01:35;;;;;;;;;;;1.90;65.00;;;;;;4983338;28;20249;-77
2023/03/02 00:04:01;;;;;;;20.95;10.38;;;1.90;64.90;;;;;;4980839;28;19943;-78
2023/03/02 00:06:27;;;;;;;17.55;9.45;;;1.90;64.90;;;;;;4981660;28;20042;-78
2023/03/02 00:08:53;;;;;;;17.75;9.55;;;1.90;65.00;;;;;;4983164;28;20061;-78
2023/03/02 00:11:18;;;;;;;18.60;10.35;;;1.90;65.10;;;;;;4978894;28;20065;-78
2023/03/02 00:13:44;;;;;;;18.33;10.18;;;1.80;65.20;;;;;;4978839;28;20057;-78
2023/03/02 00:16:09;;;;;;;21.52;10.68;;;1.80;65.30;;;;;;4968463;28;20049;-77
2023/03/02 00:18:35;;;;;;;21.90;10.23;;;1.80;65.40;;;;;;4983496;28;20057;-80
2023/03/02 00:21:00;;;;;;;18.38;9.93;;;1.80;65.50;;;;;;4997617;28;20026;-77
2023/03/02 00:23:26;;;;;;;21.17;9.80;;;1.70;65.50;;;;;;4980208;28;20559;-78
2023/03/02 00:25:52;;;;;;;19.67;10.13;;;1.70;65.60;;;;;;4997681;28;20116;-77
2023/03/02 00:28:17;;;;;;;20.08;9.90;;;1.70;65.80;;;;;;4965528;28;20775;-78
2023/03/02 00:30:43;;;;;;;22.80;10.40;;;1.70;65.90;;;;;;4966356;28;20038;-79
2023/03/02 00:33:08;;;;;;;17.13;9.52;;;1.70;66.00;;;;;;5018247;28;20512;-77
2023/03/02 00:35:38;;;;;;;20.63;10.43;;;1.60;66.00;;;;;;5019757;28;20767;-78
2023/03/02 00:38:03;;;;;;;21.02;9.82;;;1.60;66.20;;;;;;4989507;28;20045;-77
2023/03/02 00:40:29;;;;;;;17.90;9.63;;;1.60;66.30;;;;;;5015813;28;20030;-79
2023/03/02 00:42:54;;;;;;;21.92;10.50;;;1.50;66.20;;;;;;4982022;28;20049;-78
2023/03/02 00:45:20;;;;;;;19.45;9.52;;;1.50;66.30;;;;;;4997173;28;20029;-79
2023/03/02 00:47:46;;;;;;;18.30;9.02;;;1.50;66.40;;;;;;5002962;28;20841;-77
2023/03/02 00:50:11;;;;;;;18.48;9.43;;;1.50;66.40;;;;;;5020450;28;20030;-76
2023/03/02 00:52:37;;;;;;;18.73;9.90;;;1.50;66.60;;;;;;4998289;28;20069;-77
2023/03/02 00:55:02;;;;;;;19.25;10.38;;;1.50;66.60;;;;;;4998640;28;20500;-78
2023/03/02 00:57:28;;;;;;;19.10;9.60;;;1.50;66.60;;;;;;5000813;28;20040;-76
2023/03/02 00:59:53;;;;;;;19.95;10.20;;;1.50;66.70;;;;;;5017205;28;20041;-77
2023/03/02 01:02:20;;;;;;;22.35;10.48;;;1.40;66.80;;;;;;4999920;28;20081;-78
2023/03/02 01:04:47;;;;;;;21.42;10.50;;;1.40;66.80;;;;;;5002352;28;20686;-78
2023/03/02 01:07:15;;;;;;;23.15;10.68;;;1.40;66.90;;;;;;4985818;28;20128;-78
2023/03/02 01:09:41;;;;;;;19.58;10.20;;;1.30;66.90;;;;;;4982548;28;20184;-76
2023/03/02 01:12:09;;;;;;;20.88;9.85;;;1.30;67.00;;;;;;4996737;28;20029;-76
2023/03/02 01:14:35;;;;;;;18.85;9.38;;;1.30;67.10;;;;;;4994061;28;20034;-77
2023/03/02 01:17:01;;;;;;;20.65;9.70;;;1.30;67.20;;;;;;5000068;28;20041;-77
2023/03/02 01:19:27;;;;;;;17.70;9.20;;;1.30;67.20;;;;;;4999641;28;20079;-78
2023/03/02 01:21:52;;;;;;;16.45;8.55;;;1.30;67.30;;;;;;4998009;28;20033;-76
2023/03/02 01:24:18;;;;;;;15.43;8.07;;;1.30;67.30;;;;;;4983751;28;20041;-77
2023/03/02 01:26:43;;;;;;;19.75;10.65;;;1.20;67.40;;;;;;4998345;28;20503;-77
2023/03/02 01:29:10;;;;;;;19.00;9.68;;;1.20;67.50;;;;;;5014069;28;20384;-76
2023/03/02 01:31:35;;;;;;;17.50;9.02;;;1.20;67.50;;;;;;4997766;28;20107;-77
2023/03/02 01:34:01;;;;;;;17.40;9.75;;;1.20;67.50;;;;;;4997621;28;20495;-77
2023/03/02 01:36:26;;;;;;;19.42;9.50;;;1.20;67.60;;;;;;4998169;28;20079;-77
2023/03/02 01:38:53;;;;;;;17.63;10.52;;;1.20;67.60;;;;;;5010678;28;20041;-77
2023/03/02 01:41:18;;;;;;;20.58;10.15;;;1.20;67.70;;;;;;4984043;28;20064;-76
2023/03/02 01:43:44;;;;;;;18.20;9.77;;;1.10;67.70;;;;;;5000466;28;20080;-76
2023/03/02 01:46:14;;;;;;;19.50;9.38;;;1.10;67.70;;;;;;5010862;28;20592;-77
2023/03/02 01:48:51;;;;;;;20.08;9.32;;;1.10;67.90;;;;;;5002468;28;20045;-77
2023/03/02 01:51:20;;;;;;;18.83;9.40;;;1.10;68.00;;;;;;4983983;28;20030;-76
2023/03/02 01:53:45;;;;;;;23.20;10.80;;;1.10;68.00;;;;;;4980833;28;20041;-77
2023/03/02 01:56:27;;;;;;;19.02;8.95;;;1.00;68.00;;;;;;5012090;28;20096;-78
2023/03/02 01:58:55;;;;;;;21.02;10.65;;;1.00;68.40;;;;;;4993312;28;20068;-77
2023/03/02 02:01:21;;;;;;;18.88;9.85;;;1.00;68.20;;;;;;4997967;28;20048;-79
2023/03/02 02:03:48;;;;;;;19.48;9.77;;;1.00;68.20;;;;;;4997236;28;20033;-76
2023/03/02 02:06:43;;;;;;;19.33;9.77;;;0.90;68.30;;;;;;4998187;28;20053;-76
2023/03/02 02:09:10;;;;;;;19.55;9.40;;;0.90;68.50;;;;;;4996250;28;20581;-78
2023/03/02 02:11:35;;;;;;;18.73;9.25;;;0.90;68.30;;;;;;4999631;28;20064;-80
2023/03/02 02:14:01;;;;;;;20.10;10.52;;;0.90;68.40;;;;;;5014381;28;20065;-78
2023/03/02 02:16:27;;;;;;;20.33;10.20;;;0.90;68.50;;;;;;4997854;28;20061;-79
2023/03/02 02:18:52;;;;;;;17.50;9.10;;;0.90;68.50;;;;;;4983675;28;20042;-77
2023/03/02 02:21:18;;;;;;;16.98;8.80;;;0.80;68.60;;;;;;4990117;28;20060;-79
2023/03/02 02:24:02;;;;;;;17.60;10.07;;;0.80;68.60;;;;;;5005091;28;20045;-79
2023/03/02 02:26:40;;;;;;;18.02;9.50;;;0.80;70.00;;;;;;5016855;28;20528;-77
2023/03/02 02:29:21;;;;;;;18.70;8.65;;;0.80;68.80;;;;;;4997554;28;20091;-79
2023/03/02 02:31:58;;;;;;;22.13;10.73;;;0.80;69.00;;;;;;4963817;28;20531;-79
2023/03/02 02:34:46;;;;;;;18.80;10.13;;;0.80;69.00;;;;;;4991716;28;20129;-80
2023/03/02 02:37:23;;;;;;;21.10;9.77;;;0.80;69.00;;;;;;4992398;28;21673;-77
2023/03/02 02:39:48;;;;;;;19.73;10.13;;;0.70;69.10;;;;;;4976988;28;20092;-78
2023/03/02 02:42:28;;;;;;;20.08;10.13;;;0.70;69.10;;;;;;4978262;28;20617;-78
2023/03/02 02:44:56;;;;;;;20.48;10.85;;;0.70;69.20;;;;;;4963719;28;20042;-79
2023/03/02 02:47:21;;;;;;;21.65;9.82;;;0.70;69.20;;;;;;4975325;28;20096;-78
2023/03/02 02:49:49;;;;;;;17.00;8.43;;;0.70;69.30;;;;;;4966743;28;20041;-76
2023/03/02 02:52:16;;;;;;;21.85;10.68;;;0.70;69.40;;;;;;4963101;28;20104;-79
2023/03/02 02:54:46;;;;;;;18.00;10.07;;;0.70;69.50;;;;;;4980610;28;20116;-80
2023/03/02 02:57:12;;;;;;;20.80;9.27;;;0.60;69.50;;;;;;4974360;28;20815;-77
2023/03/02 02:59:42;;;;;;;21.25;10.10;;;0.60;69.50;;;;;;4959148;28;20052;-75
2023/03/02 03:02:28;;;;;;;21.35;9.77;;;0.60;69.60;;;;;;4974157;28;20121;-76
2023/03/02 03:05:01;;;;;;;18.90;9.60;;;0.60;69.60;;;;;;4975818;28;20104;-79
2023/03/02 03:07:27;;;;;;;17.95;9.63;;;0.60;69.60;;;;;;4964345;28;20037;-78
2023/03/02 03:10:25;;;;;;;21.75;8.98;;;0.60;69.70;;;;;;4973125;28;20049;-78
2023/03/02 03:12:50;;;;;;;20.63;9.40;;;0.60;70.00;;;;;;4980547;28;20467;-78
2023/03/02 03:15:16;;;;;;;21.38;10.25;;;0.60;69.80;;;;;;4962364;28;20053;-76
2023/03/02 03:17:47;;;;;;;18.02;9.55;;;0.50;69.70;;;;;;4961229;28;20057;-78
2023/03/02 03:20:14;;;;;;;24.83;10.77;;;0.50;69.90;;;;;;4974685;28;20120;-77
2023/03/02 03:22:40;;;;;;;18.67;9.13;;;0.50;69.90;;;;;;4959039;28;20052;-76
2023/03/02 03:25:06;;;;;;;19.90;9.45;;;0.50;70.00;;;;;;4971994;28;20683;-77
2023/03/02 03:27:31;;;;;;;19.95;10.15;;;0.40;70.00;;;;;;4974572;28;20058;-78
2023/03/02 03:29:57;;;;;;;16.80;9.43;;;0.40;70.00;;;;;;4975635;28;21648;-76
2023/03/02 03:32:22;;;;;;;19.30;10.18;;;0.40;70.10;;;;;;4973831;28;20049;-77
2023/03/02 03:34:48;;;;;;;18.20;9.50;;;0.40;70.10;;;;;;4978673;28;20041;-77
2023/03/02 03:37:15;;;;;;;20.35;9.63;;;0.30;70.10;;;;;;4974338;28;20037;-76
2023/03/02 03:39:41;;;;;;;20.38;9.82;;;0.30;70.20;;;;;;4977795;28;20048;-78
2023/03/02 03:42:06;;;;;;;18.75;9.07;;;0.30;70.30;;;;;;4957058;28;20053;-75
2023/03/02 03:44:32;;;;;;;20.45;9.75;;;0.30;70.40;;;;;;4974739;28;20042;-79
2023/03/02 03:46:58;;;;;;;20.98;9.43;;;0.30;70.60;;;;;;4979465;28;20125;-78
2023/03/02 03:49:23;;;;;;;18.02;9.32;;;0.30;70.50;;;;;;4975050;28;20034;-77
2023/03/02 03:51:49;;;;;;;22.55;10.60;;;0.30;70.60;;;;;;4971017;28;20038;-77
2023/03/02 03:54:14;;;;;;;21.40;9.32;;;0.30;70.70;;;;;;4976532;28;20125;-78
2023/03/02 03:56:43;;;;;;;22.67;10.13;;;0.30;71.50;;;;;;4964990;28;20689;-77
2023/03/02 03:59:11;;;;;;;20.40;10.55;;;0.20;70.60;;;;;;4956236;28;20056;-76
2023/03/02 04:01:43;;;;;;;19.70;9.82;;;0.20;70.80;;;;;;4959208;28;20034;-77
2023/03/02 04:04:12;;;;;;;18.02;8.93;;;0.10;70.80;;;;;;4988247;28;20035;-77
2023/03/02 04:06:37;;;;;;;20.40;9.77;;;0.10;70.80;;;;;;4976075;28;20397;-77
2023/03/02 04:09:04;;;;;;;17.55;9.55;;;0.10;70.80;;;;;;4958991;28;20097;-78
2023/03/02 04:11:34;;;;;;;19.90;9.32;;;0.10;70.80;;;;;;4964939;28;20412;-77
2023/03/02 04:13:59;;;;;;;21.83;10.77;;;0.10;70.80;;;;;;4963546;28;20061;-76
2023/03/02 04:16:25;;;;;;;18.75;9.88;;;0.00;70.80;;;;;;4989198;28;20737;-77
2023/03/02 04:18:51;;;;;;;20.85;10.20;;;0.00;70.90;;;;;;4962837;28;20049;-77
2023/03/02 04:21:16;;;;;;;21.60;9.75;;;0.00;71.00;;;;;;4979022;28;20768;-79
2023/03/02 04:23:42;;;;;;;17.30;9.15;;;-0.10;71.00;;;;;;4975076;28;20041;-79
2023/03/02 04:26:07;;;;;;;16.98;9.18;;;-0.10;71.00;;;;;;4974253;28;20041;-79
2023/03/02 04:28:33;;;;;;;18.40;9.15;;;-0.10;71.10;;;;;;4956019;28;20041;-79
2023/03/02 04:30:58;;;;;;;20.00;9.90;;;-0.10;71.20;;;;;;4958567;28;20030;-80
2023/03/02 04:33:24;;;;;;;21.90;10.30;;;-0.10;71.30;;;;;;4996305;28;20040;-80
2023/03/02 04:35:49;;;;;;;18.23;9.32;;;-0.10;71.30;;;;;;4982993;28;20033;-79
2023/03/02 04:38:15;;;;;;;16.98;8.80;;;-0.10;71.30;;;;;;4986725;28;20038;-78
2023/03/02 04:40:40;;;;;;;21.00;9.95;;;-0.10;71.40;;;;;;4984201;28;20116;-78
2023/03/02 04:43:06;;;;;;;17.33;9.27;;;-0.10;71.50;;;;;;4999196;28;20072;-77
2023/03/02 04:45:31;;;;;;;20.80;10.77;;;-0.10;71.60;;;;;;4985573;28;20124;-78
2023/03/02 04:47:57;;;;;;;19.73;10.38;;;-0.10;71.60;;;;;;4973900;28;20064;-78
2023/03/02 04:50:23;;;;;;;20.52;10.30;;;-0.10;71.60;;;;;;4983159;28;20116;-79
2023/03/02 04:52:49;;;;;;;19.85;9.90;;;-0.20;71.60;;;;;;4997541;28;20046;-79
2023/03/02 04:55:19;;;;;;;18.58;9.85;;;-0.20;71.70;;;;;;4995668;28;20041;-79
2023/03/02 04:57:45;;;;;;;18.23;8.80;;;-0.20;71.80;;;;;;4997432;28;20068;-79
2023/03/02 05:00:11;;;;;;;36.00;15.35;;;-0.20;71.70;;;;;;5011033;28;20069;-80
2023/03/02 05:02:38;;;;;;;27.42;12.95;;;-0.20;71.80;;;;;;4982764;28;20582;-81
2023/03/02 05:05:04;;;;;;;27.85;11.70;;;-0.20;71.90;;;;;;4995398;28;20041;-79
2023/03/02 05:07:29;;;;;;;25.50;13.02;;;-0.20;71.90;;;;;;5010395;28;20038;-80
2023/03/02 05:09:55;;;;;;;22.70;11.00;;;-0.20;72.00;;;;;;4998973;28;20037;-78
2023/03/02 05:12:21;;;;;;;23.95;11.27;;;-0.20;72.00;;;;;;4998760;28;20141;-78
2023/03/02 05:14:46;;;;;;;21.98;9.93;;;-0.20;72.00;;;;;;4999826;28;20172;-79
2023/03/02 05:17:12;;;;;;;20.63;10.55;;;-0.30;72.00;;;;;;4997107;28;20373;-76
2023/03/02 05:19:37;;;;;;;20.65;10.00;;;-0.30;72.10;;;;;;4997118;28;20056;-79
2023/03/02 05:22:03;;;;;;;20.40;9.88;;;-0.30;72.20;;;;;;4981277;28;20045;-78
2023/03/02 05:24:28;;;;;;;19.92;9.30;;;-0.30;72.30;;;;;;5001010;28;20025;-78
2023/03/02 05:26:54;;;;;;;17.88;9.13;;;-0.30;72.30;;;;;;4995227;28;20053;-76
2023/03/02 05:29:19;;;;;;;20.55;9.55;;;-0.30;72.40;;;;;;5011766;28;20061;-79
2023/03/02 05:31:45;;;;;;;24.88;10.25;;;-0.30;72.40;;;;;;4988809;28;20038;-78
2023/03/02 05:34:13;;;;;;;22.02;10.68;;;-0.30;72.50;;;;;;4975776;28;20041;-78
2023/03/02 05:36:38;;;;;;;20.23;9.65;;;-0.40;72.50;;;;;;4987992;28;20037;-79
2023/03/02 05:39:04;;;;;;;19.65;9.25;;;-0.40;72.60;;;;;;4994561;28;20100;-79
2023/03/02 05:41:29;;;;;;;21.83;10.48;;;-0.40;72.60;;;;;;4991467;28;20030;-78
2023/03/02 05:43:55;;;;;;;17.75;9.13;;;-0.40;72.70;;;;;;4961945;28;20071;-77
2023/03/02 05:46:21;;;;;;;25.50;10.52;;;-0.40;72.70;;;;;;4963592;28;20045;-80
2023/03/02 05:48:46;;;;;;;25.85;10.52;;;-0.40;72.80;;;;;;4991324;28;20054;-77
2023/03/02 05:51:12;;;;;;;19.35;9.63;;;-0.40;72.80;;;;;;4976771;28;20425;-79
2023/03/02 05:53:37;;;;;;;22.33;9.70;;;-0.40;72.90;;;;;;4990898;28;20587;-78
2023/03/02 05:56:03;;;;;;;21.50;9.13;;;-0.40;73.00;;;;;;4995026;28;20038;-79
2023/03/02 05:58:28;;;;;;;20.48;9.15;;;-0.40;73.10;;;;;;4976206;28;20053;-79
2023/03/02 06:00:54;;;;;;;21.75;9.45;;;-0.40;73.10;;;;;;4976567;28;20042;-79
2023/03/02 06:03:20;;;;;;;23.42;11.48;;;-0.40;73.20;;;;;;4968787;28;20034;-77
2023/03/02 06:05:49;;;;;;;18.02;9.05;;;-0.40;73.20;;;;;;4981880;28;20041;-80
2023/03/02 06:08:16;;;;;;;22.02;10.30;;;-0.40;73.20;;;;;;4991799;28;20042;-79
2023/03/02 06:10:42;;;;;;;21.20;9.63;;;-0.40;73.30;;;;;;4992701;28;20052;-81
2023/03/02 06:13:07;;;;;;;21.98;10.55;;;-0.40;73.30;;;;;;4959157;28;20038;-81
2023/03/02 06:15:33;;;;;;;22.27;10.25;;;-0.40;73.30;;;;;;4973655;28;20116;-78
2023/03/02 06:17:58;;;;;;;19.85;10.00;;;-0.40;73.40;;;;;;4989868;28;20100;-78
2023/03/02 06:20:24;;;;;;;18.60;9.63;;;-0.50;73.40;;;;;;4975523;28;20049;-80
2023/03/02 06:22:50;;;;;;;20.38;9.90;;;-0.50;73.40;;;;;;4976459;28;20104;-77
2023/03/02 06:25:17;;;;;;;15.32;8.55;;;-0.40;73.50;;;;;;4960021;28;20033;-77
2023/03/02 06:27:43;;;;;;;22.10;9.43;;;-0.40;73.70;;;;;;4973102;28;20042;-75
2023/03/02 06:30:12;;;;;;;21.95;10.40;;;-0.50;73.60;;;;;;4987350;28;20415;-79
2023/03/02 06:32:37;;;;;;;22.42;10.48;;;-0.50;73.70;;;;;;4962640;28;20701;-79
2023/03/02 06:35:04;;;;;;;22.45;11.00;;;-0.50;73.70;;;;;;4958437;28;20041;-77
2023/03/02 06:37:29;;;;;;;20.13;9.40;;;-0.40;73.90;;;;;;4977202;28;20068;-78
2023/03/02 06:39:55;;;;;;;20.52;10.68;;;-0.40;73.90;;;;;;4976493;28;20046;-79
2023/03/02 06:42:22;;;;;;;20.70;9.85;;;-0.40;74.00;;;;;;4972719;28;20547;-79
2023/03/02 06:44:48;;;;;;;17.30;9.07;;;-0.40;74.10;;;;;;4978341;28;20042;-79
2023/03/02 06:47:14;;;;;;;22.60;10.80;;;-0.30;74.20;;;;;;4986812;28;20034;-76
2023/03/02 06:49:39;;;;;;;22.83;10.70;;;-0.30;74.20;;;;;;4973298;28;20096;-80
2023/03/02 06:52:09;;;;;;;23.67;11.55;;;-0.30;74.30;;;;;;4971787;28;20078;-78
2023/03/02 06:54:35;;;;;;;20.67;10.75;;;-0.30;74.30;;;;;;4989711;28;20038;-79
2023/03/02 06:57:01;;;;;;;24.60;11.75;;;-0.20;74.40;;;;;;4987936;28;20765;-79
2023/03/02 06:59:26;;;;;;;25.10;12.63;;;-0.10;74.50;;;;;;4973194;28;20084;-80
2023/03/02 07:01:52;;;;;;;22.85;11.45;;;-0.10;74.50;;;;;;4972439;28;20122;-79
2023/03/02 07:04:18;;;;;;;33.53;13.68;;;-0.10;74.40;;;;;;4990490;28;20030;-78
2023/03/02 07:06:43;;;;;;;22.15;11.55;;;0.00;75.20;;;;;;4948831;28;20064;-78
2023/03/02 07:09:09;;;;;;;33.13;14.25;;;0.10;74.60;;;;;;4987527;28;20057;-78
2023/03/02 07:11:34;;;;;;;38.22;15.80;;;0.20;74.60;;;;;;4974623;28;20061;-78
2023/03/02 07:14:00;;;;;;;30.85;14.15;;;0.30;74.60;;;;;;4960785;28;20064;-79
2023/03/02 07:16:25;;;;;;;33.80;14.18;;;0.30;74.60;;;;;;4948135;28;20031;-79
2023/03/02 07:18:51;;;;;;;31.67;14.45;;;0.40;74.60;;;;;;4967362;28;20048;-78
2023/03/02 07:21:16;;;;;;;27.50;13.43;;;0.50;74.60;;;;;;4958224;28;20026;-76
2023/03/02 07:23:42;;;;;;;26.90;12.55;;;0.60;74.60;;;;;;4975179;28;20157;-75
2023/03/02 07:26:07;;;;;;;27.58;11.75;;;0.70;74.70;;;;;;4989986;28;20119;-80
2023/03/02 07:28:38;;;;;;;24.63;12.70;;;0.80;74.60;;;;;;4959874;28;20034;-78
2023/03/02 07:31:04;;;;;;;28.73;13.27;;;0.90;74.70;;;;;;4963604;28;20034;-78
2023/03/02 07:33:29;;;;;;;31.08;14.82;;;1.00;74.60;;;;;;4993609;28;20033;-80
2023/03/02 07:35:55;;;;;;;30.90;14.35;;;1.10;74.60;;;;;;4995594;28;20519;-78
2023/03/02 07:38:20;;;;;;;34.60;17.77;;;1.20;74.60;;;;;;4998025;28;20033;-80
2023/03/02 07:40:46;;;;;;;30.48;14.65;;;1.30;74.60;;;;;;4977788;28;20602;-80
2023/03/02 07:43:11;;;;;;;24.50;12.60;;;1.50;74.60;;;;;;5012466;28;20030;-78
2023/03/02 07:45:37;;;;;;;28.80;14.88;;;1.60;74.50;;;;;;4981286;28;20060;-78
2023/03/02 07:48:03;;;;;;;29.38;14.90;;;1.70;74.40;;;;;;4998389;28;20041;-76
2023/03/02 07:50:28;;;;;;;27.00;14.05;;;1.80;74.30;;;;;;4983712;28;20152;-79
2023/03/02 07:52:54;;;;;;;27.55;15.15;;;2.00;74.30;;;;;;5014340;28;20034;-78
2023/03/02 07:55:19;;;;;;;48.83;21.02;;;2.10;74.20;;;;;;4998796;28;20044;-78
2023/03/02 07:57:45;;;;;;;31.95;15.70;;;2.30;74.20;;;;;;5015874;28;20038;-78
2023/03/02 08:00:11;;;;;;;38.33;19.25;;;2.40;74.40;;;;;;4997116;28;20037;-76
2023/03/02 08:02:36;;;;;;;32.40;15.15;;;2.60;74.00;;;;;;5010572;28;20108;-78
2023/03/02 08:05:02;;;;;;;33.50;17.52;;;2.70;73.90;;;;;;5011473;28;20108;-78
2023/03/02 08:07:28;;;;;;;116.97;48.30;;;2.90;73.70;;;;;;4997558;28;20124;-77
2023/03/02 08:09:53;;;;;;;101.32;37.42;;;3.10;73.70;;;;;;5015125;28;20037;-78
2023/03/02 08:12:19;;;;;;;68.35;26.40;;;3.20;73.50;;;;;;4971738;28;20138;-80
2023/03/02 08:14:46;;;;;;;170.85;61.35;;;3.40;73.20;;;;;;4995787;28;20138;-77
2023/03/02 08:17:11;;;;;;;92.15;43.90;;;3.60;73.00;;;;;;4994536;28;20824;-78
2023/03/02 08:19:37;;;;;;;23.27;12.98;;;3.80;73.00;;;;;;4997297;28;20687;-79
2023/03/02 08:22:03;;;;;;;22.13;12.02;;;4.00;72.80;;;;;;4995669;28;20040;-78
2023/03/02 08:24:28;;;;;;;24.85;13.68;;;4.20;72.60;;;;;;4992609;28;20043;-79
2023/03/02 08:26:54;;;;;;;21.15;12.15;;;4.40;72.30;;;;;;5011769;28;20068;-79
2023/03/02 08:29:19;;;;;;;20.67;11.30;;;4.50;72.00;;;;;;4993223;28;20038;-78
2023/03/02 08:31:45;;;;;;;19.95;10.13;;;4.70;71.80;;;;;;4990441;28;20057;-76
2023/03/02 08:34:10;;;;;;;16.38;9.40;;;4.90;71.50;;;;;;4990645;28;20906;-79
2023/03/02 08:36:37;;;;;;;18.33;10.27;;;5.00;71.20;;;;;;4979453;28;20124;-79
2023/03/02 08:39:02;;;;;;;19.27;10.32;;;5.20;71.00;;;;;;4991977;28;20034;-79
2023/03/02 08:41:29;;;;;;;18.10;9.60;;;5.40;70.90;;;;;;4992515;28;20029;-80
2023/03/02 08:43:54;;;;;;;18.60;10.10;;;5.50;70.70;;;;;;4964071;28;20109;-78
2023/03/02 08:46:20;;;;;;;17.40;10.63;;;5.70;70.50;;;;;;4972479;28;20092;-80
2023/03/02 08:48:45;;;;;;;18.30;9.10;;;5.90;70.20;;;;;;4992766;28;20123;-79
2023/03/02 08:51:21;;;;;;;16.02;7.97;;;6.00;70.00;;;;;;4979171;28;20042;-80
2023/03/02 08:53:49;;;;;;;16.90;8.77;;;6.20;69.80;;;;;;4975201;28;20049;-80
2023/03/02 08:56:16;;;;;;;17.05;9.15;;;6.40;69.80;;;;;;4979054;28;20069;-81
2023/03/02 08:58:42;;;;;;;16.13;8.55;;;6.50;69.50;;;;;;4977952;28;20049;-79
2023/03/02 09:01:18;;;;;;;20.63;11.13;;;6.70;69.20;;;;;;4976786;28;20064;-80
2023/03/02 09:03:43;;;;;;;15.63;8.18;;;6.90;68.70;;;;;;4963913;28;20046;-81
2023/03/02 09:06:09;;;;;;;18.48;9.40;;;7.00;68.50;;;;;;4961651;28;20034;-80
2023/03/02 09:08:34;;;;;;;95.35;33.15;;;7.20;68.30;;;;;;4959539;28;20034;-80
2023/03/02 09:11:00;;;;;;;36.38;15.95;;;7.30;68.10;;;;;;4978487;28;20452;-79
2023/03/02 09:13:25;;;;;;;95.05;31.80;;;7.50;68.00;;;;;;4976197;28;20336;-80
2023/03/02 09:15:51;;;;;;;20.95;10.95;;;7.70;67.60;;;;;;4965821;28;20037;-81
2023/03/02 09:18:17;;;;;;;26.55;10.88;;;7.80;67.30;;;;;;4975811;28;20034;-79
2023/03/02 09:20:42;;;;;;;49.85;22.60;;;8.00;67.10;;;;;;4992837;28;20048;-80
2023/03/02 09:23:08;;;;;;;21.40;10.60;;;8.10;66.70;;;;;;4970872;28;20026;-80
2023/03/02 09:25:33;;;;;;;21.77;9.75;;;8.30;66.40;;;;;;4990191;28;20522;-80
2023/03/02 09:27:59;;;;;;;17.50;9.55;;;8.50;66.10;;;;;;4957167;28;20752;-81
2023/03/02 09:30:24;;;;;;;20.65;9.73;;;8.60;65.90;;;;;;4986302;28;20509;-81
2023/03/02 09:32:50;;;;;;;17.05;8.82;;;8.80;65.70;;;;;;4990994;28;20037;-82
2023/03/02 09:35:15;;;;;;;13.68;8.23;;;8.90;65.40;;;;;;4994145;28;20141;-80
2023/03/02 09:37:41;;;;;;;18.25;8.50;;;9.10;65.20;;;;;;4977512;28;20044;-80
2023/03/02 09:40:23;;;;;;;16.48;7.97;;;9.30;65.00;;;;;;4993401;28;20602;-81
2023/03/02 09:43:17;;;;;;;14.13;8.55;;;9.50;64.50;;;;;;4979111;28;20048;-80
2023/03/02 09:46:21;;;;;;;16.10;8.20;;;9.60;64.00;;;;;;4995516;28;20107;-81
2023/03/02 09:49:11;;;;;;;12.60;7.63;;;9.80;63.80;;;;;;4980018;28;21991;-80
2023/03/02 09:52:03;;;;;;;13.27;7.82;;;10.00;63.60;;;;;;5008894;28;21418;-80
2023/03/02 09:54:29;;;;;;;13.80;7.70;;;10.10;63.60;;;;;;4984350;28;20036;-81
2023/03/02 09:56:58;;;;;;;19.30;8.90;;;10.30;63.50;;;;;;4979588;28;20026;-78
2023/03/02 09:59:38;;;;;;;17.67;7.85;;;10.40;63.10;;;;;;4994234;28;20474;-81
2023/03/02 10:02:27;;;;;;;14.13;7.32;;;10.60;62.50;;;;;;4980507;28;20041;-80
2023/03/02 10:04:55;;;;;;;12.07;7.20;;;10.80;62.00;;;;;;4968799;28;20037;-82
2023/03/02 10:07:25;;;;;;;15.25;7.80;;;11.00;62.20;;;;;;4995533;28;20041;-81
2023/03/02 10:09:51;;;;;;;16.60;7.85;;;11.10;61.80;;;;;;4994635;28;20150;-81
2023/03/02 10:12:22;;;;;;;14.07;7.88;;;11.30;61.40;;;;;;5009602;28;20715;-82
2023/03/02 10:15:13;;;;;;;11.98;7.32;;;11.40;60.80;;;;;;5006086;28;20037;-78
2023/03/02 10:17:44;;;;;;;13.23;7.20;;;11.60;60.50;;;;;;4982515;28;20772;-78
2023/03/02 10:20:13;;;;;;;;;;;11.80;60.50;;;;;;5006907;28;20044;-77
2023/03/02 10:22:43;;;;;;;13.30;7.10;;;12.10;60.70;;;;;;4990212;28;19990;-80
2023/03/02 10:25:15;;;;;;;15.52;7.30;;;12.20;60.40;;;;;;4995306;28;20040;-80
2023/03/02 10:27:41;;;;;;;15.30;6.97;;;12.40;60.00;;;;;;4976976;28;20041;-81
2023/03/02 10:30:29;;;;;;;15.25;7.18;;;12.50;59.80;;;;;;4979092;28;20218;-80
2023/03/02 10:32:57;;;;;;;15.73;8.10;;;12.70;58.90;;;;;;4976890;28;20574;-80
2023/03/02 10:35:24;;;;;;;12.90;6.07;;;12.90;59.20;;;;;;4956204;28;20591;-82
2023/03/02 10:37:50;;;;;;;12.25;6.82;;;13.00;58.80;;;;;;4966709;28;20117;-81
2023/03/02 10:40:38;;;;;;;11.82;6.82;;;13.10;58.60;;;;;;4974890;28;20507;-80
2023/03/02 10:43:05;;;;;;;14.30;7.30;;;13.30;57.90;;;;;;4989492;28;20049;-82
2023/03/02 10:45:31;;;;;;;13.70;7.15;;;13.40;58.20;;;;;;4959375;28;20504;-80
2023/03/02 10:48:04;;;;;;;17.55;7.72;;;13.50;57.80;;;;;;4977028;28;20042;-80
2023/03/02 10:50:30;;;;;;;15.00;8.35;;;13.70;57.40;;;;;;4960378;28;20041;-80
2023/03/02 10:52:55;;;;;;;13.45;6.97;;;13.70;57.00;;;;;;4987464;28;20034;-81
2023/03/02 10:55:21;;;;;;;11.55;6.38;;;13.80;56.80;;;;;;4973841;28;20043;-78
2023/03/02 10:57:58;;;;;;;10.35;5.38;;;13.90;56.70;;;;;;4980640;28;20037;-78
2023/03/02 11:00:26;;;;;;;13.88;6.88;;;14.10;56.40;;;;;;4970663;28;20170;-78
2023/03/02 11:02:55;;;;;;;16.23;7.03;;;14.20;56.70;;;;;;4955904;28;20042;-80
2023/03/02 11:05:20;;;;;;;17.83;6.93;;;14.40;56.30;;;;;;4963579;28;20843;-81
2023/03/02 11:07:54;;;;;;;12.25;5.93;;;14.50;56.10;;;;;;4980641;28;20580;-82
2023/03/02 11:10:21;;;;;;;18.15;6.95;;;14.60;55.80;;;;;;4972796;28;20139;-79
2023/03/02 11:12:48;;;;;;;14.93;6.88;;;14.80;55.90;;;;;;4945395;28;20780;-81
2023/03/02 11:15:17;;;;;;;15.65;7.85;;;14.90;55.30;;;;;;4973370;28;20045;-81
2023/03/02 11:17:42;;;;;;;12.27;6.88;;;15.00;55.10;;;;;;4988418;28;20073;-80
2023/03/02 11:20:22;;;;;;;11.55;6.22;;;15.10;55.00;;;;;;4958016;28;20072;-80
2023/03/02 11:23:05;;;;;;;10.23;5.75;;;15.20;53.90;;;;;;4967935;28;20097;-82
2023/03/02 11:25:35;;;;;;;19.15;8.60;;;15.30;54.00;;;;;;4973605;28;20042;-83
2023/03/02 11:28:32;;;;;;;17.92;9.18;;;15.40;54.10;;;;;;4985098;28;20038;-83
2023/03/02 11:30:58;;;;;;;23.88;12.07;;;15.60;53.90;;;;;;4923200;28;20060;-78
2023/03/02 11:33:34;;;;;;;14.77;7.38;;;15.70;54.10;;;;;;4991343;28;20497;-81
2023/03/02 11:36:22;;;;;;;12.63;6.95;;;15.80;52.70;;;;;;4977525;28;20037;-78
2023/03/02 11:38:49;;;;;;;14.82;7.32;;;15.90;52.50;;;;;;4986907;28;20037;-79
2023/03/02 11:41:28;;;;;;;11.43;6.75;;;16.00;53.30;;;;;;4975421;28;20065;-77
2023/03/02 11:44:14;;;;;;;18.83;7.07;;;16.20;52.90;;;;;;4976674;28;20037;-80
2023/03/02 11:46:40;;;;;;;13.07;6.00;;;16.30;53.00;;;;;;5000380;28;20037;-78
2023/03/02 11:49:13;;;;;;;14.77;7.13;;;16.40;53.00;;;;;;4982190;28;20030;-79
2023/03/02 11:51:49;;;;;;;13.57;7.47;;;16.60;52.40;;;;;;4967106;28;20048;-81
2023/03/02 11:54:35;;;;;;;16.40;6.80;;;16.70;52.60;;;;;;4976385;28;20034;-77
2023/03/02 11:57:01;;;;;;;12.07;5.95;;;16.80;52.00;;;;;;4981880;28;20512;-79
2023/03/02 11:59:26;;;;;;;13.43;6.65;;;16.90;52.20;;;;;;4981697;28;20049;-83
2023/03/02 12:02:23;;;;;;;12.02;6.13;;;17.00;52.10;;;;;;4986321;28;20689;-79
2023/03/02 12:04:49;;;;;;;16.10;6.57;;;17.10;51.30;;;;;;4989568;28;20061;-81
2023/03/02 12:07:17;;;;;;;11.05;6.05;;;17.30;51.80;;;;;;5000700;28;20112;-79
2023/03/02 12:09:43;;;;;;;12.98;6.25;;;17.40;51.50;;;;;;4978945;28;20591;-80
2023/03/02 12:12:23;;;;;;;14.50;6.53;;;17.40;51.30;;;;;;4983325;28;20044;-80
2023/03/02 12:14:48;;;;;;;10.52;5.78;;;17.50;50.50;;;;;;4979880;28;20034;-81
2023/03/02 12:17:18;;;;;;;11.52;6.45;;;17.60;50.70;;;;;;4998549;28;20045;-80
2023/03/02 12:19:44;;;;;;;13.48;6.35;;;17.70;50.30;;;;;;4986579;28;20047;-81
2023/03/02 12:22:12;;;;;;;12.25;6.28;;;17.80;50.20;;;;;;4995909;28;20046;-81
2023/03/02 12:24:38;;;;;;;12.98;5.70;;;17.90;49.90;;;;;;4992486;28;20034;-80
2023/03/02 12:27:19;;;;;;;11.98;5.20;;;18.00;49.70;;;;;;5000645;28;20124;-81
2023/03/02 12:29:50;;;;;;;12.27;5.70;;;18.10;49.50;;;;;;5013129;28;20121;-80
2023/03/02 12:32:18;;;;;;;14.90;5.35;;;18.10;49.30;;;;;;4967747;28;20478;-80
2023/03/02 12:34:50;;;;;;;16.92;5.57;;;18.20;49.30;;;;;;5013642;28;20119;-79
2023/03/02 12:37:31;;;;;;;10.45;5.05;;;18.20;49.20;;;;;;5016415;28;20033;-82
2023/03/02 12:40:06;;;;;;;;;;;18.30;49.00;;;;;;5001343;28;20071;-82
2023/03/02 12:42:46;;;;;;;12.30;4.75;;;18.30;49.30;;;;;;4986766;28;20003;-83
2023/03/02 12:45:19;;;;;;;16.50;5.13;;;18.40;49.40;;;;;;5016449;28;20131;-82